Time;durP1;ratioP1;P1;durP2;ratioP2;P2;SDS_P1;SDS_P2;PMS_P1;PMS_P2;Temp;Humidity;BMP_temperature;BMP_pressure;BME280_temperature;BME280_humidity;BME280_pressure;Samples;Min_cycle;Max_cycle;Signal;HPM_P1;HPM_P2
2023/06/14 00:01:55;;;;;;;8.37;5.60;;;;;;;-143.21;98.11;71677.59;5053556;28;20715;-85
2023/06/14 00:04:25;;;;;;;8.07;5.40;;;;;;;-143.21;98.17;71675.59;5054256;28;20217;-84
2023/06/14 00:06:52;;;;;;;7.33;5.90;;;;;;;-143.21;98.88;71677.59;5054395;28;20578;-84
2023/06/14 00:09:19;;;;;;;7.23;6.13;;;;;;;-143.21;99.92;71669.66;5054011;28;20206;-84
2023/06/14 00:11:46;;;;;;;6.73;5.60;;;;;;;-143.21;100.00;71661.72;5056705;28;20209;-84
2023/06/14 00:14:14;;;;;;;6.83;5.80;;;;;;;-143.21;99.63;71663.72;5052951;28;20198;-84
2023/06/14 00:16:42;;;;;;;7.97;6.13;;;;;;;-143.21;99.36;71655.78;5053344;28;20277;-84
2023/06/14 00:19:10;;;;;;;14.70;5.83;;;;;;;-143.21;99.59;71647.84;5049891;28;20567;-84
2023/06/14 00:21:37;;;;;;;11.90;6.10;;;;;;;-143.21;99.72;71645.88;5052368;28;20202;-84
2023/06/14 00:24:05;;;;;;;13.50;6.03;;;;;;;-143.21;99.60;71643.88;5052600;28;20220;-84
2023/06/14 00:26:32;;;;;;;9.03;6.13;;;;;;;-143.21;99.77;71641.91;5052983;28;20205;-86
2023/06/14 00:29:00;;;;;;;6.70;5.80;;;;;;;-143.21;99.79;71635.94;5052548;28;20607;-86
2023/06/14 00:31:31;;;;;;;8.03;5.77;;;;;;;-143.21;99.90;71633.97;5054227;28;20209;-86
2023/06/14 00:33:58;;;;;;;11.63;6.03;;;;;;;-143.21;100.00;71620.09;5053096;28;20194;-85
2023/06/14 00:36:24;;;;;;;6.80;5.87;;;;;;;-143.21;99.59;71614.13;5052664;28;20197;-86
2023/06/14 00:38:51;;;;;;;7.53;6.10;;;;;;;-143.21;99.34;71622.06;5052341;28;20202;-86
2023/06/14 00:41:18;;;;;;;9.63;6.07;;;;;;;-143.21;99.19;71620.09;5052530;28;20213;-87
2023/06/14 00:43:45;;;;;;;12.37;6.70;;;;;;;-143.21;99.19;71610.16;5052878;28;20595;-87
2023/06/14 00:46:12;;;;;;;8.83;6.10;;;;;;;-143.21;98.82;71606.22;5052912;28;20202;-88
2023/06/14 00:48:41;;;;;;;12.85;5.63;;;;;;;-143.21;98.40;71610.16;5052534;28;20194;-87
2023/06/14 00:51:08;;;;;;;7.63;5.90;;;;;;;-143.21;98.57;71618.09;5051395;28;20672;-88
2023/06/14 00:53:35;;;;;;;7.03;5.72;;;;;;;-143.21;99.10;71622.06;5059198;28;20303;-88
2023/06/14 00:56:03;;;;;;;9.07;6.20;;;;;;;-143.21;99.38;71624.06;5052474;28;20206;-88
2023/06/14 00:58:31;;;;;;;8.90;5.47;;;;;;;-143.21;99.42;71620.09;5052805;28;20202;-87
2023/06/14 01:00:58;;;;;;;7.67;5.67;;;;;;;-143.21;99.58;71618.09;5052305;28;20205;-87
2023/06/14 01:03:28;;;;;;;7.03;5.30;;;;;;;-143.21;99.71;71610.16;5052825;28;20199;-87
2023/06/14 01:06:06;;;;;;;8.98;5.72;;;;;;;-143.21;99.66;71616.13;5052769;28;20225;-86
2023/06/14 01:08:48;;;;;;;6.47;5.65;;;;;;;-143.21;99.25;71608.19;5052531;28;20205;-86
2023/06/14 01:11:23;;;;;;;6.40;5.73;;;;;;;-143.21;99.23;71610.16;5051990;28;20202;-86
2023/06/14 01:13:53;;;;;;;9.23;5.70;;;;;;;-143.21;99.35;71608.19;5051981;28;20218;-86
2023/06/14 01:16:29;;;;;;;8.05;5.60;;;;;;;-143.21;99.27;71600.25;5051895;28;20202;-86
2023/06/14 01:18:57;;;;;;;10.30;6.00;;;;;;;-143.21;99.16;71606.22;5056181;28;20662;-85
2023/06/14 01:21:28;;;;;;;15.18;5.57;;;;;;;-143.21;99.36;71606.22;5052949;28;20318;-86
2023/06/14 01:23:56;;;;;;;8.20;5.97;;;;;;;-143.21;99.21;71606.22;5053060;28;20281;-86
2023/06/14 01:26:24;;;;;;;8.97;6.07;;;;;;;-143.21;98.46;71600.25;5052053;28;20198;-86
2023/06/14 01:28:52;;;;;;;8.10;5.63;;;;;;;-143.21;98.81;71608.19;5057054;28;20217;-86
2023/06/14 01:31:22;;;;;;;8.70;6.10;;;;;;;-143.21;98.95;71606.22;5054186;28;20212;-86
2023/06/14 01:33:50;;;;;;;7.50;6.00;;;;;;;-143.21;98.27;71600.25;5061263;28;20264;-86
2023/06/14 01:36:19;;;;;;;10.68;6.07;;;;;;;-143.21;97.93;71604.22;5054497;28;20202;-85
2023/06/14 01:38:48;;;;;;;13.67;6.37;;;;;;;-143.21;97.99;71608.19;5053287;28;20209;-86
2023/06/14 01:41:17;;;;;;;11.00;6.37;;;;;;;-143.21;98.16;71606.22;5052151;28;20684;-86
2023/06/14 01:43:44;;;;;;;6.83;5.97;;;;;;;-143.21;97.87;71612.16;5052011;28;20221;-85
2023/06/14 01:46:12;;;;;;;13.80;6.43;;;;;;;-143.21;98.29;71618.09;5052162;28;20221;-85
2023/06/14 01:48:39;;;;;;;8.30;6.63;;;;;;;-143.21;98.78;71620.09;5048540;28;20209;-85
2023/06/14 01:51:06;;;;;;;11.13;6.60;;;;;;;-143.21;99.24;71624.06;5051319;28;20206;-85
2023/06/14 01:53:33;;;;;;;11.60;7.07;;;;;;;-143.21;99.27;71618.09;5051970;28;20202;-85
2023/06/14 01:56:01;;;;;;;11.87;6.50;;;;;;;-143.21;98.84;71618.09;5054584;28;20213;-85
2023/06/14 01:58:30;;;;;;;9.50;6.50;;;;;;;-143.21;98.53;71620.09;5051561;28;20217;-86
2023/06/14 02:00:57;;;;;;;9.32;6.53;;;;;;;-143.21;98.27;71626.03;5051477;28;20205;-86
2023/06/14 02:03:24;;;;;;;9.10;6.90;;;;;;;-143.21;98.43;71631.97;5051127;28;20206;-86
2023/06/14 02:05:51;;;;;;;11.65;6.70;;;;;;;-143.21;98.02;71637.94;5053750;28;20230;-86
2023/06/14 02:08:18;;;;;;;8.50;6.70;;;;;;;-143.21;98.47;71639.91;5052697;28;20194;-85
2023/06/14 02:10:45;;;;;;;9.90;6.47;;;;;;;-143.21;98.46;71633.97;5050943;28;20209;-84
2023/06/14 02:13:12;;;;;;;7.77;6.87;;;;;;;-143.21;98.39;71637.94;5052105;28;20220;-87
2023/06/14 02:15:43;;;;;;;10.80;7.00;;;;;;;-143.21;98.27;71639.91;5052687;28;20214;-86
2023/06/14 02:18:11;;;;;;;10.23;6.87;;;;;;;-143.21;98.02;71635.94;5047678;28;20213;-86
2023/06/14 02:20:38;;;;;;;9.57;6.93;;;;;;;-143.21;97.92;71633.97;5051332;28;20644;-82
2023/06/14 02:23:05;;;;;;;8.70;7.20;;;;;;;-143.21;97.96;71639.91;5050817;28;20206;-85
2023/06/14 02:25:31;;;;;;;8.97;6.53;;;;;;;-143.21;97.80;71643.88;5051141;28;20253;-85
2023/06/14 02:27:58;;;;;;;8.13;6.28;;;;;;;-143.21;97.21;71641.91;5050681;28;20878;-85
2023/06/14 02:30:25;;;;;;;9.98;6.53;;;;;;;-143.21;97.21;71635.94;5060980;28;20281;-85
2023/06/14 02:32:53;;;;;;;9.17;6.93;;;;;;;-143.21;97.01;71635.94;5050561;28;20253;-84
2023/06/14 02:35:24;;;;;;;7.50;6.23;;;;;;;-143.21;96.46;71661.72;5051138;28;20272;-84
2023/06/14 02:37:52;;;;;;;11.13;6.60;;;;;;;-143.21;97.17;71669.66;5050684;28;20196;-85
2023/06/14 02:40:19;;;;;;;11.77;6.67;;;;;;;-143.21;97.64;71669.66;5050832;28;20206;-82
2023/06/14 02:42:45;;;;;;;10.27;6.80;;;;;;;-143.21;98.09;71669.66;5050321;28;20213;-82
2023/06/14 02:45:12;;;;;;;9.00;5.95;;;;;;;-143.21;97.69;71667.66;5050767;28;20225;-83
2023/06/14 02:47:39;;;;;;;9.03;6.40;;;;;;;-143.21;97.48;71667.66;5057856;28;20246;-82
2023/06/14 02:50:09;;;;;;;10.97;6.83;;;;;;;-143.21;98.04;71673.63;5050780;28;20206;-82
2023/06/14 02:52:36;;;;;;;9.70;6.37;;;;;;;-143.21;98.32;71671.63;5053843;28;20208;-82
2023/06/14 02:55:03;;;;;;;8.57;6.40;;;;;;;-143.21;98.25;71665.69;5050550;28;20337;-82
2023/06/14 02:57:30;;;;;;;10.53;6.07;;;;;;;-143.21;97.53;71663.72;5051029;28;20202;-81
2023/06/14 02:59:57;;;;;;;8.47;6.10;;;;;;;-143.21;97.01;71671.63;5050316;28;20202;-82
2023/06/14 03:02:24;;;;;;;8.93;6.17;;;;;;;-143.21;96.44;71671.63;5053296;28;20205;-82
2023/06/14 03:04:51;;;;;;;8.80;5.93;;;;;;;-143.21;96.77;71665.69;5050323;28;20271;-82
2023/06/14 03:07:20;;;;;;;6.93;6.10;;;;;;;-143.21;96.96;71675.59;5049624;28;20202;-82
2023/06/14 03:09:49;;;;;;;7.13;6.43;;;;;;;-143.21;97.59;71681.56;5054035;28;20206;-82
2023/06/14 03:12:15;;;;;;;8.83;6.00;;;;;;;-143.21;98.39;71685.50;5049866;28;20276;-83
2023/06/14 03:14:46;;;;;;;7.73;5.73;;;;;;;-143.21;98.59;71683.53;5049820;28;20216;-82
2023/06/14 03:17:13;;;;;;;8.70;6.47;;;;;;;-143.21;98.53;71677.59;5050263;28;20194;-82
2023/06/14 03:19:41;;;;;;;10.90;7.10;;;;;;;-143.21;98.77;71683.53;5055737;28;20209;-81
2023/06/14 03:22:08;;;;;;;11.70;7.20;;;;;;;-143.21;98.27;71679.56;5049508;28;20252;-85
2023/06/14 03:24:36;;;;;;;16.27;7.20;;;;;;;-143.21;97.82;71677.59;5050928;28;20210;-84
2023/06/14 03:27:03;;;;;;;10.57;7.10;;;;;;;-143.21;97.99;71677.59;5050881;28;20217;-84
2023/06/14 03:29:31;;;;;;;9.30;7.13;;;;;;;-143.21;98.14;71675.59;5051425;28;20198;-84
2023/06/14 03:31:59;;;;;;;8.83;6.97;;;;;;;-143.21;98.18;71671.63;5050775;28;20272;-85
2023/06/14 03:34:26;;;;;;;8.80;7.13;;;;;;;-143.21;97.62;71667.66;5050254;28;20206;-85
2023/06/14 03:36:53;;;;;;;11.90;7.17;;;;;;;-143.21;97.80;71673.63;5050312;28;20548;-85
2023/06/14 03:39:20;;;;;;;9.48;6.85;;;;;;;-143.21;97.59;71675.59;5050736;28;20202;-85
2023/06/14 03:41:50;;;;;;;10.20;7.13;;;;;;;-143.21;97.37;71671.63;5051310;28;20475;-86
2023/06/14 03:44:18;;;;;;;10.57;6.77;;;;;;;-143.21;97.33;71671.63;5050046;28;20194;-83
2023/06/14 03:46:46;;;;;;;11.53;7.37;;;;;;;-143.21;97.08;71673.63;5050501;28;20283;-85
2023/06/14 03:49:13;;;;;;;16.63;6.73;;;;;;;-143.21;97.09;71671.63;5050681;28;20767;-84
2023/06/14 03:51:40;;;;;;;10.47;6.90;;;;;;;-143.21;97.30;71663.72;5057106;28;20577;-83
2023/06/14 03:54:07;;;;;;;8.17;6.63;;;;;;;-143.21;96.95;71665.69;5049415;28;20198;-83
2023/06/14 03:56:35;;;;;;;10.00;6.57;;;;;;;-143.21;97.25;71669.66;5050459;28;20344;-83
2023/06/14 03:59:04;;;;;;;12.23;6.18;;;;;;;-143.21;97.19;71667.66;5050237;28;20226;-83
2023/06/14 04:01:31;;;;;;;7.82;5.90;;;;;;;-143.21;96.66;71669.66;5050332;28;20197;-83
2023/06/14 04:03:58;;;;;;;12.10;6.10;;;;;;;-143.21;96.57;71673.63;5050240;28;20233;-82
2023/06/14 04:06:31;;;;;;;16.70;6.47;;;;;;;-143.21;96.52;71671.63;5050099;28;20283;-83
2023/06/14 04:09:03;;;;;;;10.50;7.53;;;;;;;-143.21;95.58;71673.63;5050132;28;20269;-83
2023/06/14 04:11:31;;;;;;;10.80;7.00;;;;;;;-143.21;95.36;71677.59;5049719;28;20799;-85
2023/06/14 04:13:59;;;;;;;11.97;7.53;;;;;;;-143.21;95.44;71669.66;5048666;28;20206;-80
2023/06/14 04:16:30;;;;;;;26.70;12.20;;;;;;;-143.21;95.30;71663.72;5047759;28;20359;-79
2023/06/14 04:18:57;;;;;;;9.15;7.47;;;;;;;-143.21;95.03;71665.69;5050430;28;20242;-79
2023/06/14 04:21:26;;;;;;;11.20;6.90;;;;;;;-143.21;94.86;71665.69;5049235;28;20202;-78
2023/06/14 04:23:54;;;;;;;11.47;7.37;;;;;;;-143.21;94.64;71665.69;5051723;28;20562;-78
2023/06/14 04:26:23;;;;;;;9.37;7.20;;;;;;;-143.21;94.62;71657.75;5050945;28;20749;-79
2023/06/14 04:28:50;;;;;;;13.67;7.50;;;;;;;-143.21;94.49;71659.75;5048675;28;20206;-78
2023/06/14 04:31:18;;;;;;;11.43;6.80;;;;;;;-143.21;94.55;71659.75;5050472;28;20217;-78
2023/06/14 04:33:47;;;;;;;11.30;7.17;;;;;;;-143.21;94.15;71649.81;5053465;28;20202;-78
2023/06/14 04:36:17;;;;;;;15.37;6.97;;;;;;;-143.21;93.98;71647.84;5054123;28;20198;-78
2023/06/14 04:38:48;;;;;;;10.57;7.43;;;;;;;-143.21;93.51;71643.88;5047729;28;20202;-78
2023/06/14 04:41:16;;;;;;;10.10;7.03;;;;;;;-143.21;92.89;71637.94;5045628;28;20713;-78
2023/06/14 04:43:42;;;;;;;12.48;7.25;;;;;;;-143.21;92.85;71647.84;5055431;28;20204;-79
2023/06/14 04:46:11;;;;;;;13.48;8.05;;;;;;;-143.21;92.57;71645.88;5052548;28;20228;-78
2023/06/14 04:48:40;;;;;;;12.63;8.03;;;;;;;-143.21;92.72;71647.84;5051957;28;20255;-80
2023/06/14 04:51:09;;;;;;;10.35;6.95;;;;;;;-143.21;92.61;71653.78;5055714;28;20530;-78
2023/06/14 04:53:35;;;;;;;9.77;6.80;;;;;;;-143.21;92.89;71659.75;5052257;28;20210;-79
2023/06/14 04:56:03;;;;;;;10.25;7.72;;;;;;;-143.21;92.81;71659.75;5051681;28;20213;-82
2023/06/14 04:58:32;;;;;;;9.00;7.53;;;;;;;-143.21;92.71;71655.78;5052195;28;20214;-81
2023/06/14 05:01:00;;;;;;;10.90;8.10;;;;;;;-143.21;92.43;71663.72;5058286;28;20210;-82
2023/06/14 05:03:27;;;;;;;9.60;8.10;;;;;;;-143.21;92.66;71659.75;5058999;28;20737;-81
2023/06/14 05:05:54;;;;;;;15.13;7.63;;;;;;;-143.21;92.59;71663.72;5054694;28;20217;-80
2023/06/14 05:08:24;;;;;;;12.02;8.80;;;;;;;-143.21;92.62;71667.66;5051821;28;20927;-81
2023/06/14 05:10:51;;;;;;;14.48;8.73;;;;;;;-143.21;92.76;71659.75;5056350;28;20232;-82
2023/06/14 05:13:18;;;;;;;11.00;8.37;;;;;;;-143.21;93.18;71669.66;5057083;28;20202;-81
2023/06/14 05:15:45;;;;;;;12.85;8.45;;;;;;;-143.21;93.23;71659.75;5051780;28;20206;-81
2023/06/14 05:18:13;;;;;;;16.88;9.00;;;;;;;-143.21;93.14;71653.78;5051918;28;20198;-81
2023/06/14 05:20:41;;;;;;;13.57;8.38;;;;;;;-143.21;92.81;71649.81;5058980;28;20206;-81
2023/06/14 05:23:14;;;;;;;11.73;9.48;;;;;;;-143.21;92.65;71645.88;5051695;28;20198;-80
2023/06/14 05:25:44;;;;;;;11.30;9.00;;;;;;;-143.21;92.05;71641.91;5053078;28;20210;-81
2023/06/14 05:28:10;;;;;;;11.90;9.40;;;;;;;-143.21;92.11;71639.91;5050717;28;20234;-81
2023/06/14 05:30:38;;;;;;;13.80;9.40;;;;;;;-143.21;92.37;71637.94;5055915;28;20206;-82
2023/06/14 05:33:05;;;;;;;13.88;8.55;;;;;;;-143.21;92.41;71635.94;5051665;28;20750;-82
2023/06/14 05:35:32;;;;;;;14.93;8.13;;;;;;;-143.21;92.28;71630.00;5051734;28;20217;-82
2023/06/14 05:37:59;;;;;;;12.50;7.88;;;;;;;-143.21;92.31;71626.03;5051429;28;20214;-80
2023/06/14 05:40:26;;;;;;;11.15;8.30;;;;;;;-143.21;91.79;71626.03;5051408;28;20661;-82
2023/06/14 05:42:54;;;;;;;12.77;8.38;;;;;;;-143.21;91.79;71612.16;5051065;28;20206;-82
2023/06/14 05:45:20;;;;;;;13.25;8.75;;;;;;;-143.21;91.92;71612.16;5051228;28;20202;-81
2023/06/14 05:47:47;;;;;;;10.50;8.43;;;;;;;-143.21;92.05;71606.22;5051240;28;20209;-81
2023/06/14 05:50:17;;;;;;;13.23;8.68;;;;;;;-143.21;91.48;71590.34;5055502;28;20221;-80
2023/06/14 05:52:44;;;;;;;12.00;8.10;;;;;;;-143.21;91.34;71582.41;5053705;28;20198;-83
2023/06/14 05:55:11;;;;;;;10.45;7.82;;;;;;;-143.21;91.13;71578.44;5050845;28;20226;-82
2023/06/14 05:57:38;;;;;;;13.60;9.13;;;;;;;-143.21;91.03;71586.38;5050180;28;20202;-81
2023/06/14 06:00:11;;;;;;;11.38;9.43;;;;;;;-143.21;91.09;71570.53;5051114;28;20209;-82
2023/06/14 06:02:38;;;;;;;13.73;9.25;;;;;;;-143.21;90.89;71562.59;5054521;28;20202;-81
2023/06/14 06:05:05;;;;;;;15.65;9.05;;;;;;;-143.21;90.61;71572.50;5051031;28;20660;-81
2023/06/14 06:07:32;;;;;;;13.05;8.90;;;;;;;-143.21;90.76;71572.50;5050587;28;20613;-81
2023/06/14 06:09:59;;;;;;;16.67;9.32;;;;;;;-143.21;90.61;71566.56;5054865;28;20214;-81
2023/06/14 06:12:26;;;;;;;14.10;9.40;;;;;;;-143.21;90.08;71562.59;5054764;28;20206;-81
2023/06/14 06:14:53;;;;;;;14.88;9.15;;;;;;;-143.21;90.27;71562.59;5050875;28;20202;-83
2023/06/14 06:17:21;;;;;;;15.45;9.95;;;;;;;-143.21;90.05;71556.63;5051136;28;20252;-81
2023/06/14 06:19:48;;;;;;;18.17;10.32;;;;;;;-143.21;90.49;71556.63;5054632;28;20209;-80
2023/06/14 06:22:15;;;;;;;22.48;10.50;;;;;;;-143.21;90.18;71562.59;5050799;28;20205;-81
2023/06/14 06:24:42;;;;;;;16.00;10.23;;;;;;;-143.21;89.55;71558.63;5051464;28;20259;-81
2023/06/14 06:27:12;;;;;;;13.60;9.88;;;;;;;-143.21;89.73;71554.66;5050602;28;20225;-80
2023/06/14 06:32:21;;;;;;;14.25;10.30;;;;;;;-143.21;89.55;71546.72;5053762;28;20229;-83
2023/06/14 06:34:47;;;;;;;15.40;10.15;;;;;;;-143.21;89.34;71528.88;5049989;28;20194;-81
2023/06/14 06:37:15;;;;;;;16.73;10.63;;;;;;;-143.21;88.70;71524.91;5053633;28;20253;-81
2023/06/14 06:39:41;;;;;;;12.52;9.27;;;;;;;-143.21;88.95;71518.97;5053950;28;20229;-82
2023/06/14 06:42:08;;;;;;;17.52;10.35;;;;;;;-143.21;88.74;71509.06;5047414;28;20201;-79
2023/06/14 06:44:35;;;;;;;13.85;10.63;;;;;;;-143.21;87.74;71499.13;5057198;28;20212;-80
2023/06/14 06:47:02;;;;;;;14.93;10.25;;;;;;;-143.21;87.67;71489.22;5053761;28;20619;-81
2023/06/14 06:49:30;;;;;;;16.73;10.00;;;;;;;-143.21;88.53;71493.19;5050614;28;20212;-79
2023/06/14 06:52:04;;;;;;;18.10;10.23;;;;;;;-143.21;88.53;71489.22;5051450;28;20621;-80
2023/06/14 06:54:31;;;;;;;14.90;10.40;;;;;;;-143.21;87.43;71485.25;5048569;28;20212;-79
2023/06/14 06:56:58;;;;;;;17.65;10.63;;;;;;;-143.21;87.16;71471.38;5052034;28;20206;-79
2023/06/14 06:59:26;;;;;;;14.93;10.88;;;;;;;-143.21;87.04;71461.47;5051780;28;20208;-79
2023/06/14 07:01:52;;;;;;;15.68;10.63;;;;;;;-143.21;86.04;71443.63;5048084;28;20214;-80
2023/06/14 07:04:20;;;;;;;14.82;11.57;;;;;;;-143.21;85.24;71437.69;5048446;28;20208;-80
2023/06/14 07:06:48;;;;;;;15.30;11.35;;;;;;;-143.21;83.84;71429.75;5051116;28;20292;-79
2023/06/14 07:09:16;;;;;;;14.27;11.43;;;;;;;-143.21;83.61;71421.81;5052429;28;20217;-79
2023/06/14 07:11:44;;;;;;;17.05;11.90;;;;;;;-143.21;82.57;71421.81;5055370;28;20260;-80
2023/06/14 07:14:11;;;;;;;16.90;11.30;;;;;;;-143.21;82.98;71427.75;5049316;28;20198;-80
2023/06/14 07:16:38;;;;;;;17.58;12.38;;;;;;;-143.21;83.60;71409.91;5053425;28;20205;-80
2023/06/14 07:19:06;;;;;;;26.08;12.15;;;;;;;-143.21;83.93;71392.06;5049580;28;20213;-81
2023/06/14 07:21:32;;;;;;;19.30;11.68;;;;;;;-143.21;83.04;71394.06;5053424;28;20296;-82
2023/06/14 07:24:01;;;;;;;19.25;12.00;;;;;;;-143.21;82.75;71378.19;5050591;28;20858;-82
2023/06/14 07:26:27;;;;;;;22.30;11.57;;;;;;;-143.21;82.89;71364.31;5049488;28;20253;-81
2023/06/14 07:28:54;;;;;;;15.90;12.52;;;;;;;-143.21;81.92;71348.47;5049580;28;20669;-81
2023/06/14 07:31:21;;;;;;;17.20;12.52;;;;;;;-143.21;80.55;71346.47;5055364;28;20274;-81
2023/06/14 07:33:48;;;;;;;21.60;13.00;;;;;;;-143.21;80.95;71344.50;5055033;28;20676;-80
2023/06/14 07:36:15;;;;;;;16.33;12.43;;;;;;;-143.21;80.29;71336.56;5054149;28;20206;-81
2023/06/14 07:38:42;;;;;;;17.95;12.70;;;;;;;-143.21;80.48;71334.59;5054756;28;20206;-81
2023/06/14 07:41:10;;;;;;;18.23;13.30;;;;;;;-143.21;80.94;71330.63;5052667;28;20215;-82
2023/06/14 07:43:37;;;;;;;19.58;13.57;;;;;;;-143.21;80.03;71328.63;5046745;28;20197;-81
2023/06/14 07:46:04;;;;;;;19.17;13.77;;;;;;;-143.21;78.30;71328.63;5050600;28;20622;-81
2023/06/14 07:48:31;;;;;;;24.33;13.50;;;;;;;-143.21;78.84;71328.63;5052496;28;20249;-82
2023/06/14 07:50:58;;;;;;;18.48;13.10;;;;;;;-143.21;77.79;71324.66;5049521;28;20198;-81
2023/06/14 07:53:26;;;;;;;18.23;12.25;;;;;;;-143.21;78.42;71324.66;5047325;28;20274;-82
2023/06/14 07:55:53;;;;;;;18.95;11.70;;;;;;;-143.21;77.99;71318.72;5051167;28;20218;-81
2023/06/14 07:58:21;;;;;;;20.17;12.95;;;;;;;-143.21;77.25;71314.75;5054303;28;20312;-81
2023/06/14 08:00:48;;;;;;;23.00;13.15;;;;;;;-143.21;76.03;71310.78;5053545;28;20661;-81
2023/06/14 08:03:15;;;;;;;26.20;13.45;;;;;;;-143.21;76.50;71288.97;5050132;28;20209;-81
2023/06/14 08:05:42;;;;;;;20.45;13.85;;;;;;;-143.21;76.51;71267.19;5051062;28;20216;-81
2023/06/14 08:08:09;;;;;;;20.90;12.52;;;;;;;-143.21;74.22;71253.28;5049940;28;20305;-81
2023/06/14 08:10:35;;;;;;;20.05;12.40;;;;;;;-143.21;74.45;71243.38;5049836;28;20250;-81
2023/06/14 08:13:03;;;;;;;22.05;13.63;;;;;;;-143.21;74.55;71241.41;5049670;28;20217;-81
2023/06/14 08:15:31;;;;;;;23.75;14.02;;;;;;;-143.21;73.14;71235.44;5054061;28;21080;-80
2023/06/14 08:17:59;;;;;;;17.35;14.02;;;;;;;-143.21;73.12;71235.44;5047977;28;20206;-80
2023/06/14 08:20:26;;;;;;;18.42;13.02;;;;;;;-143.21;73.14;71233.47;5053497;28;20193;-83
2023/06/14 08:22:55;;;;;;;20.48;13.15;;;;;;;-143.21;73.46;71221.56;5054724;28;20202;-83
2023/06/14 08:25:22;;;;;;;20.95;13.80;;;;;;;-143.21;73.71;71217.59;5055135;28;20696;-84
2023/06/14 08:27:49;;;;;;;22.08;12.43;;;;;;;-143.21;72.51;71209.69;5055405;28;20213;-83
2023/06/14 08:30:19;;;;;;;19.17;12.63;;;;;;;-143.21;72.14;71207.69;5071730;28;20288;-82
2023/06/14 08:32:47;;;;;;;18.65;11.60;;;;;;;-143.21;72.27;71203.72;5077873;28;20239;-83
2023/06/14 08:35:14;;;;;;;19.67;12.77;;;;;;;-143.21;73.34;71205.72;5061366;28;20236;-84
2023/06/14 08:37:42;;;;;;;17.63;13.23;;;;;;;-143.21;73.70;71199.78;5054958;28;20202;-83
2023/06/14 08:40:20;;;;;;;16.70;13.10;;;;;;;-143.21;71.66;71201.75;5054068;28;20229;-79
2023/06/14 08:42:51;;;;;;;17.70;12.75;;;;;;;-143.21;71.76;71197.78;5048786;28;20237;-80
2023/06/14 08:45:18;;;;;;;17.80;12.35;;;;;;;-143.21;71.70;71187.88;5054170;28;20198;-81
2023/06/14 08:47:51;;;;;;;20.58;13.32;;;;;;;-143.21;71.12;71175.97;5053988;28;20225;-79
2023/06/14 08:50:21;;;;;;;121.43;38.70;;;;;;;-143.21;71.92;71164.09;5053773;28;20202;-79
2023/06/14 08:52:52;;;;;;;77.72;29.08;;;;;;;-143.21;72.90;71154.16;5053683;28;20293;-78
2023/06/14 08:55:20;;;;;;;19.17;13.13;;;;;;;-143.21;69.89;71146.25;5034390;28;20241;-79
2023/06/14 08:57:49;;;;;;;17.58;12.23;;;;;;;-143.21;69.94;71136.31;5060377;28;20261;-79
2023/06/14 09:00:17;;;;;;;28.23;15.65;;;;;;;-143.21;70.09;71128.41;5073803;28;20679;-78
2023/06/14 09:02:44;;;;;;;21.58;12.65;;;;;;;-143.21;70.38;71120.47;5073517;28;20198;-79
2023/06/14 09:05:14;;;;;;;15.52;11.82;;;;;;;-143.21;69.60;71112.53;5072301;28;20280;-80
2023/06/14 09:07:41;;;;;;;18.55;12.20;;;;;;;-143.21;70.47;71114.53;5073381;28;20267;-80
2023/06/14 09:10:10;;;;;;;17.92;12.23;;;;;;;-143.21;71.08;71112.53;5066575;28;20202;-80
2023/06/14 09:12:37;;;;;;;12.77;7.97;;;;;;;-143.21;73.29;71090.72;5053175;28;20194;-79
2023/06/14 09:15:08;;;;;;;14.90;11.07;;;;;;;-143.21;72.06;71068.94;5053092;28;20198;-80
2023/06/14 09:17:35;;;;;;;14.55;10.88;;;;;;;-143.21;70.95;71053.06;5053306;28;20194;-82
2023/06/14 09:20:05;;;;;;;19.73;11.80;;;;;;;-143.21;69.35;71039.19;5052964;28;20244;-80
2023/06/14 09:22:34;;;;;;;13.55;10.48;;;;;;;-143.21;69.34;71051.09;5053192;28;20198;-83
2023/06/14 09:25:02;;;;;;;16.08;11.57;;;;;;;-143.21;67.90;71043.16;5053213;28;20197;-81
2023/06/14 09:27:29;;;;;;;13.93;9.93;;;;;;;-143.21;68.17;71035.22;5041785;28;20233;-81
2023/06/14 09:29:56;;;;;;;17.55;10.65;;;;;;;-143.21;69.68;71023.34;5032885;28;20190;-81
2023/06/14 09:32:23;;;;;;;17.60;11.70;;;;;;;-143.21;67.35;71011.44;5048987;28;20202;-82
2023/06/14 09:34:50;;;;;;;15.05;11.65;;;;;;;-143.21;64.71;71021.34;5052281;28;20230;-81
2023/06/14 09:37:29;;;;;;;19.73;12.18;;;;;;;-143.21;64.66;71021.34;5052858;28;20193;-81
2023/06/14 09:39:57;;;;;;;18.27;11.18;;;;;;;-143.21;65.06;71031.25;5052683;28;20190;-80
2023/06/14 09:42:25;;;;;;;13.25;10.38;;;;;;;-143.21;65.51;71027.28;5052952;28;20202;-80
2023/06/14 09:44:54;;;;;;;12.75;10.50;;;;;;;-143.21;66.32;71025.31;5052687;28;20202;-80
2023/06/14 09:47:21;;;;;;;14.55;10.88;;;;;;;-143.21;65.96;71033.25;5052225;28;20222;-82
2023/06/14 09:49:48;;;;;;;13.70;10.80;;;;;;;-143.21;65.80;71031.25;5032500;28;20191;-80
2023/06/14 09:52:16;;;;;;;14.52;10.43;;;;;;;-143.21;69.07;71023.34;5032218;28;20545;-79
2023/06/14 09:54:46;;;;;;;17.50;11.23;;;;;;;-143.21;66.69;71015.41;5032281;28;20194;-78
2023/06/14 09:57:16;;;;;;;12.82;10.20;;;;;;;-143.21;65.14;71005.50;5050099;28;20202;-79
2023/06/14 09:59:45;;;;;;;14.73;10.70;;;;;;;-143.21;66.44;70991.63;5072118;28;20697;-78
2023/06/14 10:02:23;;;;;;;12.45;8.52;;;;;;;-143.21;69.02;70975.75;5062933;28;20189;-80
2023/06/14 10:05:00;;;;;;;14.13;11.05;;;;;;;-143.21;68.49;70951.97;5051664;28;20281;-79
2023/06/14 10:07:31;;;;;;;14.85;11.15;;;;;;;-143.21;65.13;70932.13;5052316;28;20218;-81
2023/06/14 10:09:59;;;;;;;16.27;10.95;;;;;;;-143.21;65.17;70908.34;5051699;28;20190;-80
2023/06/14 10:12:28;;;;;;;15.65;10.23;;;;;;;-143.21;66.19;70886.53;5052055;28;20275;-80
2023/06/14 10:14:56;;;;;;;12.50;9.50;;;;;;;-143.21;64.86;70864.75;5049019;28;20651;-80
2023/06/14 10:17:39;;;;;;;16.95;10.98;;;;;;;-143.21;64.51;70837.00;5051800;28;20275;-81
2023/06/14 10:20:20;;;;;;;15.05;10.68;;;;;;;-143.21;63.27;70805.28;5047644;28;20221;-79
2023/06/14 10:22:51;;;;;;;18.23;11.55;;;;;;;-143.21;62.14;70789.41;5050976;28;20184;-80
2023/06/14 10:25:30;;;;;;;14.63;11.95;;;;;;;-143.21;60.53;70775.53;5049333;28;20269;-80
2023/06/14 10:28:18;;;;;;;10.55;8.55;;;;;;;-143.21;62.00;70757.69;5048772;28;20210;-79
2023/06/14 10:31:04;;;;;;;16.48;11.38;;;;;;;-143.21;61.19;70743.81;5050335;28;20691;-79
2023/06/14 10:33:32;;;;;;;14.48;11.35;;;;;;;-143.21;60.34;70749.78;5050832;28;20265;-79
2023/06/14 10:36:13;;;;;;;10.02;9.00;;;;;;;-143.21;60.69;70729.94;5051137;28;20209;-79
2023/06/14 10:38:40;;;;;;;12.65;9.10;;;;;;;-143.21;60.34;70704.19;5049480;28;20281;-79
2023/06/14 10:41:08;;;;;;;12.13;8.60;;;;;;;-143.21;60.31;70678.41;5050721;28;20198;-79
2023/06/14 10:43:36;;;;;;;12.75;10.02;;;;;;;-143.21;59.08;70666.50;5047743;28;20800;-79
2023/06/14 10:46:17;;;;;;;11.30;9.38;;;;;;;-143.21;57.30;70678.41;5050465;28;20287;-79
2023/06/14 10:48:44;;;;;;;11.52;8.18;;;;;;;-143.21;58.91;70658.59;5049348;28;20263;-79
2023/06/14 10:51:20;;;;;;;13.02;10.38;;;;;;;-143.21;56.80;70642.72;5050394;28;20198;-78
2023/06/14 10:53:49;;;;;;;14.57;10.95;;;;;;;-143.21;56.78;70640.75;5050868;28;20229;-79
2023/06/14 10:56:29;;;;;;;9.27;8.05;;;;;;;-143.21;57.55;70626.88;5048811;28;20205;-79
2023/06/14 10:59:00;;;;;;;10.85;8.77;;;;;;;-143.21;56.77;70603.09;5047546;28;20193;-80
2023/06/14 11:01:37;;;;;;;10.93;8.23;;;;;;;-143.21;57.00;70573.34;5051043;28;20198;-80
2023/06/14 11:04:09;;;;;;;11.27;9.23;;;;;;;-143.21;55.62;70555.50;5049447;28;20249;-80
2023/06/14 11:06:48;;;;;;;10.75;9.35;;;;;;;-143.21;54.50;70543.63;5047045;28;20226;-83
2023/06/14 11:09:46;;;;;;;16.60;10.70;;;;;;;-143.21;56.21;70557.50;5048484;28;20206;-84
2023/06/14 11:12:14;;;;;;;13.23;9.90;;;;;;;-143.21;55.63;70567.41;5048313;28;20189;-84
2023/06/14 11:14:57;;;;;;;12.40;9.50;;;;;;;-143.21;56.03;70585.25;5051487;28;20214;-88
2023/06/14 11:17:24;;;;;;;10.45;8.48;;;;;;;-143.21;57.06;70575.34;5050452;28;20175;-88
2023/06/14 11:20:08;;;;;;;9.93;8.82;;;;;;;-143.21;56.90;70555.50;5051030;28;20202;-87